createdAt,value
2023-04-28T00:00:55.282Z,3.30
2023-04-28T00:03:24.803Z,2.43
2023-04-28T00:05:54.330Z,2.80
2023-04-28T00:08:23.663Z,1.87
2023-04-28T00:10:51.439Z,2.73
2023-04-28T00:13:19.110Z,2.60
2023-04-28T00:15:46.893Z,2.90
2023-04-28T00:18:14.707Z,3.63
2023-04-28T00:20:44.405Z,1.87
2023-04-28T00:23:12.450Z,4.13
2023-04-28T00:25:40.781Z,3.03
2023-04-28T00:28:08.475Z,2.90
2023-04-28T00:30:37.018Z,3.13
2023-04-28T00:33:04.824Z,3.03
2023-04-28T00:35:32.583Z,3.37
2023-04-28T00:38:01.857Z,2.13
2023-04-28T00:40:35.046Z,2.53
2023-04-28T00:43:04.192Z,2.57
2023-04-28T00:45:32.747Z,3.10
2023-04-28T00:48:00.993Z,3.93
2023-04-28T00:50:29.388Z,2.90
2023-04-28T00:52:57.188Z,3.27
2023-04-28T00:55:27.628Z,2.70
2023-04-28T00:57:57.397Z,4.73
2023-04-28T01:00:26.204Z,4.27
2023-04-28T01:02:54.943Z,2.30
2023-04-28T01:05:25.181Z,4.43
2023-04-28T01:07:52.900Z,3.33
2023-04-28T01:10:20.996Z,2.27
2023-04-28T01:12:50.278Z,2.73
2023-04-28T01:15:19.739Z,3.47
2023-04-28T01:17:48.058Z,3.93
2023-04-28T01:20:16.227Z,3.67
2023-04-28T01:22:43.928Z,2.53
2023-04-28T01:25:13.131Z,3.00
2023-04-28T01:27:40.910Z,3.93
2023-04-28T01:30:10.045Z,3.87
2023-04-28T01:32:39.109Z,3.57
2023-04-28T01:35:07.607Z,3.27
2023-04-28T01:37:35.591Z,3.63
2023-04-28T01:40:05.012Z,3.13
2023-04-28T01:42:34.209Z,5.07
2023-04-28T01:45:03.668Z,3.57
2023-04-28T01:47:31.461Z,3.90
2023-04-28T01:49:59.578Z,4.30
2023-04-28T01:52:28.024Z,4.07
2023-04-28T01:54:56.595Z,4.00
2023-04-28T01:57:24.373Z,4.93
2023-04-28T01:59:53.687Z,4.07
2023-04-28T02:02:21.607Z,5.60
2023-04-28T02:04:49.475Z,4.33
2023-04-28T02:07:17.337Z,3.73
2023-04-28T02:09:45.142Z,3.60
2023-04-28T02:12:13.190Z,3.50
2023-04-28T02:14:40.906Z,4.10
2023-04-28T02:17:10.367Z,3.23
2023-04-28T02:19:39.016Z,5.43
2023-04-28T02:22:07.220Z,3.97
2023-04-28T02:24:37.063Z,4.10
2023-04-28T02:27:05.364Z,3.87
2023-04-28T02:29:32.974Z,6.53
2023-04-28T02:32:00.878Z,6.13
2023-04-28T02:34:31.696Z,3.63
2023-04-28T02:36:59.406Z,4.07
2023-04-28T02:39:28.127Z,4.57
2023-04-28T02:41:55.971Z,4.13
2023-04-28T02:44:23.707Z,5.10
2023-04-28T02:46:51.518Z,4.00
2023-04-28T02:49:19.500Z,4.17
2023-04-28T02:51:50.113Z,4.43
2023-04-28T02:54:27.323Z,4.13
2023-04-28T02:56:55.598Z,4.03
2023-04-28T02:59:24.222Z,4.33
2023-04-28T03:01:52.595Z,4.37
2023-04-28T03:04:21.452Z,5.57
2023-04-28T03:06:51.554Z,3.97
2023-04-28T03:09:19.337Z,4.13
2023-04-28T03:11:47.071Z,5.17
2023-04-28T03:14:14.968Z,4.10
2023-04-28T03:16:43.129Z,4.57
2023-04-28T03:19:11.105Z,4.37
2023-04-28T03:21:38.805Z,4.27
2023-04-28T03:24:08.643Z,5.53
2023-04-28T03:26:37.552Z,6.17
2023-04-28T03:29:05.295Z,4.50
2023-04-28T03:31:33.088Z,4.07
2023-04-28T03:34:00.926Z,3.70
2023-04-28T03:36:28.716Z,4.27
2023-04-28T03:38:56.614Z,5.97
2023-04-28T03:41:25.706Z,4.63
2023-04-28T03:43:53.476Z,4.60
2023-04-28T03:46:21.516Z,4.20
2023-04-28T03:48:50.801Z,5.77
2023-04-28T03:51:18.579Z,5.93
2023-04-28T03:53:46.474Z,4.50
2023-04-28T03:56:14.355Z,5.40
2023-04-28T03:58:43.511Z,4.20
2023-04-28T04:01:11.555Z,4.30
2023-04-28T04:03:39.903Z,8.10
2023-04-28T04:06:08.319Z,3.80
2023-04-28T04:08:37.010Z,5.20
2023-04-28T04:11:05.039Z,5.47
2023-04-28T04:13:33.188Z,4.47
2023-04-28T04:16:02.351Z,5.33
2023-04-28T04:18:30.221Z,4.37
2023-04-28T04:20:57.898Z,5.43
2023-04-28T04:23:26.357Z,5.13
2023-04-28T04:25:54.310Z,4.30
2023-04-28T04:28:22.386Z,5.27
2023-04-28T04:30:50.455Z,4.20
2023-04-28T04:33:20.001Z,4.43
2023-04-28T04:35:48.113Z,5.50
2023-04-28T04:38:16.421Z,4.93
2023-04-28T04:40:44.758Z,4.20
2023-04-28T04:43:12.958Z,5.03
2023-04-28T04:45:41.871Z,5.80
2023-04-28T04:48:09.783Z,5.30
2023-04-28T04:50:39.057Z,4.63
2023-04-28T04:53:07.936Z,5.67
2023-04-28T04:55:37.723Z,4.33
2023-04-28T04:58:05.633Z,4.87
2023-04-28T05:00:33.780Z,4.50
2023-04-28T05:03:01.757Z,4.77
2023-04-28T05:05:29.662Z,5.43
2023-04-28T05:07:59.189Z,5.40
2023-04-28T05:10:27.438Z,5.97
2023-04-28T05:12:55.143Z,6.10
2023-04-28T05:15:24.244Z,5.37
2023-04-28T05:17:52.362Z,4.90
2023-04-28T05:20:20.728Z,5.03
2023-04-28T05:22:48.488Z,5.27
2023-04-28T05:25:17.972Z,6.93
2023-04-28T05:27:46.400Z,3.73
2023-04-28T05:30:15.850Z,4.67
2023-04-28T05:32:43.627Z,5.43
2023-04-28T05:35:15.531Z,4.33
2023-04-28T05:37:45.239Z,5.67
2023-04-28T05:40:13.449Z,4.30
2023-04-28T05:42:43.440Z,5.47
2023-04-28T05:45:12.824Z,7.33
2023-04-28T05:47:41.609Z,4.77
2023-04-28T05:50:10.592Z,4.87
2023-04-28T05:52:38.304Z,4.37
2023-04-28T05:55:09.284Z,4.73
2023-04-28T05:57:45.648Z,4.23
2023-04-28T06:00:22.387Z,5.40
2023-04-28T06:02:53.138Z,4.23
2023-04-28T06:05:22.200Z,5.07
2023-04-28T06:07:50.259Z,7.03
2023-04-28T06:10:18.597Z,7.77
2023-04-28T06:12:46.508Z,8.20
2023-04-28T06:15:14.868Z,5.73
2023-04-28T06:17:46.060Z,6.23
2023-04-28T06:20:14.590Z,5.33
2023-04-28T06:22:43.430Z,6.90
2023-04-28T06:25:11.171Z,4.80
2023-04-28T06:27:38.988Z,6.47
2023-04-28T06:30:08.624Z,4.93
2023-04-28T06:32:36.466Z,5.33
2023-04-28T06:35:07.820Z,6.07
2023-04-28T06:37:35.958Z,5.20
2023-04-28T06:40:03.776Z,7.40
2023-04-28T06:42:31.657Z,6.93
2023-04-28T06:44:59.346Z,5.20
2023-04-28T06:47:29.179Z,5.83
2023-04-28T06:49:57.493Z,5.20
2023-04-28T06:52:38.535Z,5.20
2023-04-28T06:55:07.588Z,4.90
2023-04-28T06:57:35.696Z,5.93
2023-04-28T07:00:04.715Z,6.30
2023-04-28T07:02:34.549Z,4.67
2023-04-28T07:05:02.782Z,6.00
2023-04-28T07:07:32.273Z,8.10
2023-04-28T07:10:01.026Z,5.70
2023-04-28T07:12:29.765Z,5.33
2023-04-28T07:14:57.824Z,6.17
2023-04-28T07:17:25.645Z,5.30
2023-04-28T07:19:53.455Z,5.60
2023-04-28T07:22:23.794Z,6.83
2023-04-28T07:24:55.422Z,4.57
2023-04-28T07:27:24.890Z,5.93
2023-04-28T07:29:52.600Z,4.90
2023-04-28T07:32:20.498Z,7.23
2023-04-28T07:34:48.263Z,5.07
2023-04-28T07:37:16.204Z,6.00
2023-04-28T07:39:45.707Z,5.40
2023-04-28T07:42:14.889Z,4.97
2023-04-28T07:44:42.540Z,6.97
2023-04-28T07:47:10.926Z,4.60
2023-04-28T07:49:38.625Z,4.93
2023-04-28T07:52:06.840Z,5.60
2023-04-28T07:54:36.979Z,6.20
2023-04-28T07:57:06.255Z,5.50
2023-04-28T07:59:35.914Z,5.23
2023-04-28T08:02:04.754Z,6.87
2023-04-28T08:04:33.998Z,4.73
2023-04-28T08:07:02.680Z,5.83
2023-04-28T08:09:30.415Z,5.20
2023-04-28T08:11:59.077Z,5.77
2023-04-28T08:14:27.677Z,5.20
2023-04-28T08:16:57.192Z,4.90
2023-04-28T08:19:26.045Z,5.53
2023-04-28T08:21:54.371Z,6.10
2023-04-28T08:24:22.728Z,5.17
2023-04-28T08:26:50.445Z,4.97
2023-04-28T08:29:18.488Z,5.73
2023-04-28T08:31:46.362Z,6.40
2023-04-28T08:34:16.669Z,4.63
2023-04-28T08:36:45.118Z,4.50
2023-04-28T08:39:13.740Z,4.70
2023-04-28T08:41:43.009Z,4.47
2023-04-28T08:44:12.247Z,4.87
2023-04-28T08:46:42.146Z,4.40
2023-04-28T08:49:17.193Z,5.47
2023-04-28T08:51:47.973Z,4.80
2023-04-28T08:54:26.178Z,4.60
2023-04-28T08:56:55.489Z,4.73
2023-04-28T08:59:24.541Z,4.53
2023-04-28T09:01:53.984Z,4.47
2023-04-28T09:04:23.850Z,4.43
2023-04-28T09:06:51.956Z,4.30
2023-04-28T09:09:21.698Z,4.67
2023-04-28T09:11:54.532Z,4.53
2023-04-28T09:14:22.647Z,4.63
2023-04-28T09:16:51.821Z,4.30
2023-04-28T09:19:20.131Z,3.90
2023-04-28T09:21:52.413Z,4.80
2023-04-28T09:24:31.334Z,4.77
2023-04-28T09:26:59.508Z,5.27
2023-04-28T09:29:27.272Z,4.67
2023-04-28T09:31:55.191Z,4.70
2023-04-28T09:34:23.459Z,5.93
2023-04-28T09:36:53.017Z,5.77
2023-04-28T09:39:31.228Z,5.03
2023-04-28T09:42:03.424Z,6.10
2023-04-28T09:44:31.124Z,5.13
2023-04-28T09:46:59.587Z,6.27
2023-04-28T09:49:27.421Z,4.83
2023-04-28T09:52:14.958Z,6.50
2023-04-28T09:54:44.139Z,4.43
2023-04-28T09:57:16.795Z,4.50
2023-04-28T09:59:51.491Z,5.23
2023-04-28T10:02:41.786Z,4.60
2023-04-28T10:05:11.722Z,5.57
2023-04-28T10:07:41.668Z,6.17
2023-04-28T10:10:10.740Z,4.43
2023-04-28T10:12:39.407Z,12.57
2023-04-28T10:15:08.933Z,4.87
2023-04-28T10:17:40.203Z,4.80
2023-04-28T10:20:09.773Z,4.03
2023-04-28T10:22:54.381Z,5.67
2023-04-28T10:25:29.832Z,4.43
2023-04-28T10:28:00.036Z,4.30
2023-04-28T10:30:30.116Z,4.90
2023-04-28T10:33:27.703Z,5.37
2023-04-28T10:35:55.644Z,4.83
2023-04-28T10:38:25.624Z,4.97
2023-04-28T10:40:55.137Z,4.50
2023-04-28T10:43:41.523Z,5.30
2023-04-28T10:46:10.827Z,4.50
2023-04-28T10:49:05.587Z,4.70
2023-04-28T10:51:34.445Z,4.43
2023-04-28T10:54:17.442Z,4.60
2023-04-28T10:57:18.124Z,5.30
2023-04-28T10:59:46.032Z,4.87
2023-04-28T11:02:49.485Z,4.27
2023-04-28T11:05:20.571Z,4.33
2023-04-28T11:08:41.878Z,4.40
2023-04-28T11:11:27.753Z,5.53
2023-04-28T11:13:57.133Z,5.23
2023-04-28T11:16:27.114Z,4.40
2023-04-28T11:18:59.315Z,4.40
2023-04-28T11:21:29.395Z,6.50
2023-04-28T11:23:58.935Z,4.80
2023-04-28T11:26:29.191Z,4.83
2023-04-28T11:28:58.417Z,4.50
2023-04-28T11:31:27.483Z,4.57
2023-04-28T11:33:59.994Z,4.47
2023-04-28T11:36:33.928Z,4.10
2023-04-28T11:39:08.064Z,4.23
2023-04-28T11:41:38.433Z,4.50
2023-04-28T11:44:14.934Z,5.00
2023-04-28T11:46:50.561Z,4.30
2023-04-28T11:49:19.870Z,4.63
2023-04-28T11:51:50.018Z,4.17
2023-04-28T11:54:23.018Z,5.00
2023-04-28T11:56:53.552Z,4.70
2023-04-28T11:59:25.883Z,4.83
2023-04-28T12:01:55.894Z,4.53
2023-04-28T12:04:32.093Z,5.53
2023-04-28T12:07:03.977Z,5.03
2023-04-28T12:09:32.525Z,4.80
2023-04-28T12:12:03.393Z,5.23
2023-04-28T12:14:34.049Z,4.57
2023-04-28T12:17:01.854Z,4.47
2023-04-28T12:19:30.850Z,4.20
2023-04-28T12:22:05.059Z,4.00
2023-04-28T12:24:35.919Z,4.57
2023-04-28T12:27:24.883Z,3.97
2023-04-28T12:29:52.596Z,4.17
2023-04-28T12:32:20.457Z,5.87
2023-04-28T12:34:50.884Z,4.10
2023-04-28T12:37:18.664Z,4.07
2023-04-28T12:39:47.477Z,4.23
2023-04-28T12:42:17.144Z,3.83
2023-04-28T12:44:46.472Z,4.10
2023-04-28T12:47:15.006Z,4.80
2023-04-28T12:49:43.258Z,3.70
2023-04-28T12:52:11.550Z,4.60
2023-04-28T12:54:39.474Z,4.63
2023-04-28T12:57:07.299Z,4.27
2023-04-28T12:59:35.060Z,4.57
2023-04-28T13:02:04.606Z,4.50
2023-04-28T13:04:36.837Z,4.57
2023-04-28T13:07:07.266Z,4.93
2023-04-28T13:09:36.322Z,5.10
2023-04-28T13:12:05.562Z,4.13
2023-04-28T13:14:33.579Z,3.93
2023-04-28T13:17:01.778Z,4.37
2023-04-28T13:19:32.453Z,5.90
2023-04-28T13:22:01.190Z,4.10
2023-04-28T13:24:28.947Z,4.60
2023-04-28T13:27:04.410Z,5.50
2023-04-28T13:29:32.886Z,4.80
2023-04-28T13:32:01.486Z,4.50
2023-04-28T13:34:31.748Z,4.77
2023-04-28T13:37:00.144Z,4.57
2023-04-28T13:39:28.399Z,7.40
2023-04-28T13:41:56.964Z,5.00
2023-04-28T13:44:25.364Z,5.47
2023-04-28T13:46:55.298Z,4.83
2023-04-28T13:49:24.264Z,4.37
2023-04-28T13:51:54.522Z,4.93
2023-04-28T13:54:22.458Z,5.07
2023-04-28T13:56:50.214Z,5.10
2023-04-28T13:59:19.320Z,5.33
2023-04-28T14:01:48.655Z,5.53
2023-04-28T14:04:16.912Z,5.27
2023-04-28T14:06:47.316Z,4.90
2023-04-28T14:09:16.902Z,5.27
2023-04-28T14:11:44.929Z,4.87
2023-04-28T14:14:12.748Z,5.73
2023-04-28T14:16:40.566Z,6.00
2023-04-28T14:19:08.766Z,5.90
2023-04-28T14:21:36.883Z,6.67
2023-04-28T14:24:04.858Z,7.10
2023-04-28T14:26:34.944Z,5.90
2023-04-28T14:29:02.773Z,6.27
2023-04-28T14:31:30.776Z,6.60
2023-04-28T14:33:59.481Z,6.43
2023-04-28T14:36:27.568Z,6.37
2023-04-28T14:38:55.219Z,5.83
2023-04-28T14:41:23.540Z,6.50
2023-04-28T14:43:53.095Z,6.83
2023-04-28T14:46:22.893Z,6.10
2023-04-28T14:48:51.301Z,6.00
2023-04-28T14:51:19.064Z,7.20
2023-04-28T14:53:48.612Z,6.63
2023-04-28T14:56:18.925Z,5.60
2023-04-28T14:58:47.325Z,6.60
2023-04-28T15:01:17.816Z,5.70
2023-04-28T15:03:45.847Z,6.23
2023-04-28T15:06:15.523Z,6.20
2023-04-28T15:08:43.429Z,5.97
2023-04-28T15:11:11.248Z,6.47
2023-04-28T15:13:42.933Z,7.83
2023-04-28T15:16:11.140Z,6.00
2023-04-28T15:18:40.930Z,4.83
2023-04-28T15:21:09.492Z,5.10
2023-04-28T15:23:37.880Z,5.53
2023-04-28T15:26:06.583Z,5.53
2023-04-28T15:28:35.064Z,4.97
2023-04-28T15:31:03.105Z,5.17
2023-04-28T15:33:30.840Z,5.80
2023-04-28T15:36:00.119Z,5.17
2023-04-28T15:38:31.249Z,5.97
2023-04-28T15:40:59.289Z,6.80
2023-04-28T15:43:27.172Z,6.53
2023-04-28T15:45:55.328Z,6.27
2023-04-28T15:48:23.936Z,6.73
2023-04-28T15:50:52.921Z,7.93
2023-04-28T15:53:25.090Z,7.97
2023-04-28T15:55:53.010Z,8.17
2023-04-28T15:58:21.491Z,7.93
2023-04-28T16:00:49.383Z,8.37
2023-04-28T16:03:17.505Z,8.43
2023-04-28T16:05:45.726Z,8.30
2023-04-28T16:08:13.729Z,9.00
2023-04-28T16:10:43.245Z,8.70
2023-04-28T16:13:12.286Z,7.70
2023-04-28T16:15:40.213Z,9.60
2023-04-28T16:18:07.828Z,9.30
2023-04-28T16:20:35.895Z,8.23
2023-04-28T16:23:06.346Z,8.57
2023-04-28T16:25:34.243Z,8.80
2023-04-28T16:28:03.402Z,8.97
2023-04-28T16:30:32.704Z,9.03
2023-04-28T16:33:00.625Z,8.87
2023-04-28T16:35:28.972Z,8.70
2023-04-28T16:37:57.137Z,9.47
2023-04-28T16:40:25.202Z,9.03
2023-04-28T16:42:53.398Z,9.67
2023-04-28T16:45:23.671Z,9.27
2023-04-28T16:47:51.754Z,9.33
2023-04-28T16:50:20.291Z,10.03
2023-04-28T16:52:48.926Z,10.00
2023-04-28T16:55:19.021Z,10.20
2023-04-28T16:57:47.231Z,10.73
2023-04-28T17:00:16.147Z,10.20
2023-04-28T17:02:45.825Z,9.63
2023-04-28T17:05:13.988Z,10.20
2023-04-28T17:07:41.790Z,10.17
2023-04-28T17:10:10.377Z,10.10
2023-04-28T17:12:39.417Z,9.20
2023-04-28T17:15:09.530Z,8.77
2023-04-28T17:17:37.454Z,8.50
2023-04-28T17:20:08.118Z,9.07
2023-04-28T17:22:36.342Z,7.30
2023-04-28T17:25:04.904Z,6.73
2023-04-28T17:27:33.338Z,6.23
2023-04-28T17:30:01.217Z,6.80
2023-04-28T17:32:31.029Z,5.87
2023-04-28T17:34:58.853Z,6.07
2023-04-28T17:37:28.044Z,5.90
2023-04-28T17:39:55.970Z,5.53
2023-04-28T17:42:23.698Z,8.40
2023-04-28T17:44:52.085Z,7.80
2023-04-28T17:47:20.062Z,7.67
2023-04-28T17:49:48.976Z,8.37
2023-04-28T17:52:17.009Z,5.33
2023-04-28T17:54:46.525Z,3.97
2023-04-28T17:57:14.526Z,3.60
2023-04-28T17:59:42.758Z,3.77
2023-04-28T18:02:11.338Z,3.80
2023-04-28T18:04:39.732Z,3.87
2023-04-28T18:07:08.025Z,3.07
2023-04-28T18:09:36.368Z,3.13
2023-04-28T18:12:07.100Z,10.33
2023-04-28T18:14:35.334Z,4.20
2023-04-28T18:17:03.244Z,5.93
2023-04-28T18:19:30.996Z,7.70
2023-04-28T18:21:59.377Z,4.93
2023-04-28T18:24:27.478Z,4.20
2023-04-28T18:26:55.100Z,9.17
2023-04-28T18:29:24.347Z,7.13
2023-04-28T18:31:52.464Z,4.60
2023-04-28T18:34:20.223Z,4.10
2023-04-28T18:36:48.083Z,3.50
2023-04-28T18:39:15.865Z,3.40
2023-04-28T18:41:43.556Z,4.43
2023-04-28T18:44:11.650Z,3.33
2023-04-28T18:46:41.148Z,3.07
2023-04-28T18:49:09.661Z,3.80
2023-04-28T18:51:38.701Z,3.43
2023-04-28T18:54:07.302Z,3.57
2023-04-28T18:56:35.510Z,3.33
2023-04-28T18:59:06.489Z,3.83
2023-04-28T19:01:34.381Z,3.13
2023-04-28T19:04:04.911Z,3.60
2023-04-28T19:06:32.936Z,3.43
2023-04-28T19:09:02.479Z,3.03
2023-04-28T19:11:31.079Z,3.30
2023-04-28T19:13:58.938Z,3.43
2023-04-28T19:16:26.804Z,3.60
2023-04-28T19:18:55.130Z,4.00
2023-04-28T19:21:30.135Z,3.70
2023-04-28T19:23:57.828Z,4.37
2023-04-28T19:26:26.674Z,4.00
2023-04-28T19:28:54.459Z,4.20
2023-04-28T19:31:22.318Z,4.10
2023-04-28T19:33:50.036Z,4.10
2023-04-28T19:36:18.579Z,4.03
2023-04-28T19:38:48.054Z,4.20
2023-04-28T19:41:15.910Z,4.40
2023-04-28T19:43:45.422Z,4.33
2023-04-28T19:46:14.867Z,4.10
2023-04-28T19:48:44.110Z,4.60
2023-04-28T19:51:12.285Z,4.10
2023-04-28T19:53:41.025Z,4.30
2023-04-28T19:56:10.544Z,3.90
2023-04-28T19:58:38.296Z,4.10
2023-04-28T20:01:07.526Z,3.93
2023-04-28T20:03:36.284Z,4.00
2023-04-28T20:06:04.845Z,4.23
2023-04-28T20:08:32.730Z,5.13
2023-04-28T20:11:00.647Z,5.00
2023-04-28T20:13:30.080Z,4.63
2023-04-28T20:15:58.124Z,4.77
2023-04-28T20:18:26.746Z,4.67
2023-04-28T20:20:56.055Z,5.27
2023-04-28T20:23:23.905Z,5.83
2023-04-28T20:25:51.934Z,5.40
2023-04-28T20:28:19.637Z,5.13
2023-04-28T20:30:49.717Z,5.07
2023-04-28T20:33:18.569Z,5.33
2023-04-28T20:35:46.299Z,5.80
2023-04-28T20:38:14.462Z,6.43
2023-04-28T20:40:42.314Z,6.40
2023-04-28T20:43:10.046Z,5.90
2023-04-28T20:45:37.929Z,5.40
2023-04-28T20:48:07.960Z,6.33
2023-04-28T20:50:39.524Z,6.70
2023-04-28T20:53:07.550Z,7.57
2023-04-28T20:55:35.584Z,6.97
2023-04-28T20:58:03.476Z,7.50
2023-04-28T21:00:33.696Z,6.90
2023-04-28T21:03:04.732Z,7.40
2023-04-28T21:05:34.991Z,7.17
2023-04-28T21:08:02.643Z,6.50
2023-04-28T21:10:30.452Z,6.80
2023-04-28T21:12:58.448Z,7.00
2023-04-28T21:15:26.318Z,6.20
2023-04-28T21:17:54.248Z,6.93
2023-04-28T21:20:22.129Z,7.07
2023-04-28T21:22:51.402Z,6.93
2023-04-28T21:25:20.361Z,6.93
2023-04-28T21:27:49.253Z,7.10
2023-04-28T21:30:17.184Z,7.10
2023-04-28T21:32:47.128Z,7.10
2023-04-28T21:35:16.527Z,6.80
2023-04-28T21:37:44.375Z,6.77
2023-04-28T21:40:18.945Z,6.47
2023-04-28T21:42:47.303Z,7.93
2023-04-28T21:45:15.102Z,7.63
2023-04-28T21:47:43.689Z,7.70
2023-04-28T21:50:12.447Z,7.87
2023-04-28T21:52:41.396Z,7.50
2023-04-28T21:55:09.985Z,6.97
2023-04-28T21:57:39.126Z,7.53
2023-04-28T22:00:12.538Z,7.20
2023-04-28T22:02:41.393Z,7.67
2023-04-28T22:05:10.441Z,7.40
2023-04-28T22:07:38.536Z,7.37
2023-04-28T22:10:08.441Z,7.00
2023-04-28T22:12:36.159Z,7.53
2023-04-28T22:15:06.450Z,6.70
2023-04-28T22:17:34.138Z,6.90
2023-04-28T22:20:02.036Z,7.10
2023-04-28T22:22:30.954Z,6.77
2023-04-28T22:25:00.336Z,7.03
2023-04-28T22:27:28.178Z,7.37
2023-04-28T22:29:55.834Z,6.60
2023-04-28T22:32:25.181Z,7.30
2023-04-28T22:34:52.962Z,8.50
2023-04-28T22:37:21.334Z,7.83
2023-04-28T22:39:49.318Z,7.90
2023-04-28T22:42:17.452Z,7.00
2023-04-28T22:44:45.213Z,8.43
2023-04-28T22:47:13.243Z,7.77
2023-04-28T22:49:42.817Z,8.37
2023-04-28T22:52:10.560Z,7.63
2023-04-28T22:54:39.142Z,9.10
2023-04-28T22:57:07.699Z,8.80
2023-04-28T22:59:35.904Z,9.10
2023-04-28T23:02:03.852Z,12.40
2023-04-28T23:04:31.852Z,10.47
2023-04-28T23:07:01.066Z,9.43
2023-04-28T23:09:28.793Z,8.80
2023-04-28T23:11:56.676Z,8.97
2023-04-28T23:14:24.688Z,8.47
2023-04-28T23:16:52.681Z,8.00
2023-04-28T23:19:20.960Z,9.13
2023-04-28T23:21:48.942Z,8.30
2023-04-28T23:24:18.306Z,8.13
2023-04-28T23:26:46.227Z,8.93
2023-04-28T23:29:14.043Z,8.73
2023-04-28T23:31:41.783Z,8.17
2023-04-28T23:34:09.875Z,8.17
2023-04-28T23:36:38.193Z,8.90
2023-04-28T23:39:05.929Z,9.50
2023-04-28T23:41:35.158Z,8.17
2023-04-28T23:44:03.245Z,8.87
2023-04-28T23:46:31.333Z,8.97
2023-04-28T23:48:59.208Z,9.03
2023-04-28T23:51:27.490Z,8.90
2023-04-28T23:53:55.738Z,8.90
2023-04-28T23:56:23.533Z,9.80
2023-04-28T23:58:52.713Z,9.73
